sensor_id;sensor_type;location;lat;lon;timestamp;P1;durP1;ratioP1;P2;durP2;ratioP2
40609;SDS011;26316;55.976;37.140;2022-09-21T00:00:33;2.47;;;2.00;;
40609;SDS011;26316;55.976;37.140;2022-09-21T00:02:58;2.63;;;2.33;;
40609;SDS011;26316;55.976;37.140;2022-09-21T00:05:24;2.30;;;2.10;;
40609;SDS011;26316;55.976;37.140;2022-09-21T00:07:50;4.75;;;2.38;;
40609;SDS011;26316;55.976;37.140;2022-09-21T00:10:17;3.17;;;2.50;;
40609;SDS011;26316;55.976;37.140;2022-09-21T00:12:44;4.57;;;2.55;;
40609;SDS011;26316;55.976;37.140;2022-09-21T00:15:13;2.80;;;2.47;;
40609;SDS011;26316;55.976;37.140;2022-09-21T00:17:42;2.60;;;2.40;;
40609;SDS011;26316;55.976;37.140;2022-09-21T00:20:08;4.80;;;2.35;;
40609;SDS011;26316;55.976;37.140;2022-09-21T00:22:34;1.90;;;1.80;;
40609;SDS011;26316;55.976;37.140;2022-09-21T00:25:00;3.38;;;2.03;;
40609;SDS011;26316;55.976;37.140;2022-09-21T00:27:30;2.25;;;1.80;;
40609;SDS011;26316;55.976;37.140;2022-09-21T00:29:56;2.38;;;2.00;;
40609;SDS011;26316;55.976;37.140;2022-09-21T00:32:22;2.10;;;1.75;;
40609;SDS011;26316;55.976;37.140;2022-09-21T00:34:49;3.28;;;1.95;;
40609;SDS011;26316;55.976;37.140;2022-09-21T00:37:16;2.38;;;2.10;;
40609;SDS011;26316;55.976;37.140;2022-09-21T00:39:43;2.20;;;2.05;;
40609;SDS011;26316;55.976;37.140;2022-09-21T00:42:09;2.80;;;2.50;;
40609;SDS011;26316;55.976;37.140;2022-09-21T00:44:37;3.33;;;2.08;;
40609;SDS011;26316;55.976;37.140;2022-09-21T00:47:08;2.85;;;2.60;;
40609;SDS011;26316;55.976;37.140;2022-09-21T00:49:36;2.50;;;2.30;;
40609;SDS011;26316;55.976;37.140;2022-09-21T00:52:04;3.40;;;3.03;;
40609;SDS011;26316;55.976;37.140;2022-09-21T00:54:32;2.70;;;2.50;;
40609;SDS011;26316;55.976;37.140;2022-09-21T00:57:05;3.47;;;2.53;;
40609;SDS011;26316;55.976;37.140;2022-09-21T00:59:33;6.50;;;3.03;;
40609;SDS011;26316;55.976;37.140;2022-09-21T01:02:00;3.88;;;3.15;;
40609;SDS011;26316;55.976;37.140;2022-09-21T01:04:26;3.70;;;3.40;;
40609;SDS011;26316;55.976;37.140;2022-09-21T01:06:53;4.90;;;3.53;;
40609;SDS011;26316;55.976;37.140;2022-09-21T01:09:20;5.05;;;3.42;;
40609;SDS011;26316;55.976;37.140;2022-09-21T01:12:02;4.55;;;3.50;;
40609;SDS011;26316;55.976;37.140;2022-09-21T01:30:58;9.55;;;6.55;;
40609;SDS011;26316;55.976;37.140;2022-09-21T01:33:27;7.55;;;6.38;;
40609;SDS011;26316;55.976;37.140;2022-09-21T01:36:04;5.97;;;5.20;;
40609;SDS011;26316;55.976;37.140;2022-09-21T01:38:43;7.03;;;5.38;;
40609;SDS011;26316;55.976;37.140;2022-09-21T01:41:11;10.02;;;4.90;;
40609;SDS011;26316;55.976;37.140;2022-09-21T01:43:41;5.32;;;4.82;;
40609;SDS011;26316;55.976;37.140;2022-09-21T01:46:10;6.38;;;5.78;;
40609;SDS011;26316;55.976;37.140;2022-09-21T01:51:06;6.00;;;5.15;;
40609;SDS011;26316;55.976;37.140;2022-09-21T01:53:50;5.87;;;5.27;;
40609;SDS011;26316;55.976;37.140;2022-09-21T01:56:20;7.25;;;5.60;;
40609;SDS011;26316;55.976;37.140;2022-09-21T01:59:06;9.98;;;5.35;;
40609;SDS011;26316;55.976;37.140;2022-09-21T02:01:36;6.00;;;5.40;;
40609;SDS011;26316;55.976;37.140;2022-09-21T02:04:07;5.90;;;4.88;;
40609;SDS011;26316;55.976;37.140;2022-09-21T02:06:34;7.22;;;4.57;;
40609;SDS011;26316;55.976;37.140;2022-09-21T02:09:06;5.18;;;4.68;;
40609;SDS011;26316;55.976;37.140;2022-09-21T02:11:33;4.72;;;4.32;;
40609;SDS011;26316;55.976;37.140;2022-09-21T02:14:12;6.05;;;4.70;;
40609;SDS011;26316;55.976;37.140;2022-09-21T02:16:57;5.17;;;3.90;;
40609;SDS011;26316;55.976;37.140;2022-09-21T02:19:45;4.72;;;3.92;;
40609;SDS011;26316;55.976;37.140;2022-09-21T02:22:17;4.68;;;4.15;;
40609;SDS011;26316;55.976;37.140;2022-09-21T02:24:46;4.20;;;3.80;;
40609;SDS011;26316;55.976;37.140;2022-09-21T02:27:30;4.97;;;4.20;;
40609;SDS011;26316;55.976;37.140;2022-09-21T02:30:17;4.53;;;3.90;;
40609;SDS011;26316;55.976;37.140;2022-09-21T02:33:18;4.60;;;3.60;;
40609;SDS011;26316;55.976;37.140;2022-09-21T02:41:13;4.07;;;3.67;;
40609;SDS011;26316;55.976;37.140;2022-09-21T02:46:13;4.97;;;3.70;;
40609;SDS011;26316;55.976;37.140;2022-09-21T02:48:45;4.80;;;3.60;;
40609;SDS011;26316;55.976;37.140;2022-09-21T02:51:13;6.25;;;3.80;;
40609;SDS011;26316;55.976;37.140;2022-09-21T02:53:42;7.45;;;3.63;;
40609;SDS011;26316;55.976;37.140;2022-09-21T02:56:11;11.35;;;4.32;;
40609;SDS011;26316;55.976;37.140;2022-09-21T02:58:40;6.22;;;4.15;;
40609;SDS011;26316;55.976;37.140;2022-09-21T03:01:11;6.95;;;3.90;;
40609;SDS011;26316;55.976;37.140;2022-09-21T03:03:39;8.95;;;4.60;;
40609;SDS011;26316;55.976;37.140;2022-09-21T03:06:05;4.85;;;3.83;;
40609;SDS011;26316;55.976;37.140;2022-09-21T03:08:31;4.65;;;3.65;;
40609;SDS011;26316;55.976;37.140;2022-09-21T03:10:57;7.07;;;3.97;;
40609;SDS011;26316;55.976;37.140;2022-09-21T03:13:23;8.25;;;4.25;;
40609;SDS011;26316;55.976;37.140;2022-09-21T03:15:49;9.95;;;4.20;;
40609;SDS011;26316;55.976;37.140;2022-09-21T03:18:14;5.57;;;3.88;;
40609;SDS011;26316;55.976;37.140;2022-09-21T03:20:43;8.57;;;4.35;;
40609;SDS011;26316;55.976;37.140;2022-09-21T03:23:12;6.32;;;4.18;;
40609;SDS011;26316;55.976;37.140;2022-09-21T03:25:38;7.55;;;4.20;;
40609;SDS011;26316;55.976;37.140;2022-09-21T03:28:24;5.35;;;4.35;;
40609;SDS011;26316;55.976;37.140;2022-09-21T03:30:51;9.85;;;5.10;;
40609;SDS011;26316;55.976;37.140;2022-09-21T03:33:17;6.07;;;4.20;;
40609;SDS011;26316;55.976;37.140;2022-09-21T03:35:44;6.32;;;4.20;;
40609;SDS011;26316;55.976;37.140;2022-09-21T03:38:10;7.85;;;5.03;;
40609;SDS011;26316;55.976;37.140;2022-09-21T03:40:36;7.28;;;4.85;;
40609;SDS011;26316;55.976;37.140;2022-09-21T03:43:02;11.55;;;5.13;;
40609;SDS011;26316;55.976;37.140;2022-09-21T03:45:28;5.75;;;4.78;;
40609;SDS011;26316;55.976;37.140;2022-09-21T03:47:54;7.60;;;5.10;;
40609;SDS011;26316;55.976;37.140;2022-09-21T03:50:21;7.28;;;4.80;;
40609;SDS011;26316;55.976;37.140;2022-09-21T03:52:48;6.93;;;5.82;;
40609;SDS011;26316;55.976;37.140;2022-09-21T03:55:13;9.25;;;6.28;;
40609;SDS011;26316;55.976;37.140;2022-09-21T03:57:39;9.10;;;5.90;;
40609;SDS011;26316;55.976;37.140;2022-09-21T04:00:06;8.75;;;5.53;;
40609;SDS011;26316;55.976;37.140;2022-09-21T04:02:34;6.68;;;5.47;;
40609;SDS011;26316;55.976;37.140;2022-09-21T04:05:00;7.18;;;6.30;;
40609;SDS011;26316;55.976;37.140;2022-09-21T04:07:30;7.10;;;6.40;;
40609;SDS011;26316;55.976;37.140;2022-09-21T04:09:59;6.75;;;6.05;;
40609;SDS011;26316;55.976;37.140;2022-09-21T04:12:25;6.53;;;5.88;;
40609;SDS011;26316;55.976;37.140;2022-09-21T04:14:51;7.07;;;6.03;;
40609;SDS011;26316;55.976;37.140;2022-09-21T04:17:17;8.32;;;5.88;;
40609;SDS011;26316;55.976;37.140;2022-09-21T04:19:42;5.88;;;5.28;;
40609;SDS011;26316;55.976;37.140;2022-09-21T04:22:10;7.28;;;5.13;;
40609;SDS011;26316;55.976;37.140;2022-09-21T04:24:37;6.63;;;5.47;;
40609;SDS011;26316;55.976;37.140;2022-09-21T04:27:08;6.22;;;5.03;;
40609;SDS011;26316;55.976;37.140;2022-09-21T04:29:34;6.35;;;5.30;;
40609;SDS011;26316;55.976;37.140;2022-09-21T04:32:03;5.50;;;5.00;;
40609;SDS011;26316;55.976;37.140;2022-09-21T04:34:29;6.15;;;4.90;;
40609;SDS011;26316;55.976;37.140;2022-09-21T04:36:55;4.90;;;4.50;;
40609;SDS011;26316;55.976;37.140;2022-09-21T04:39:23;5.25;;;4.38;;
40609;SDS011;26316;55.976;37.140;2022-09-21T04:41:49;5.07;;;4.18;;
40609;SDS011;26316;55.976;37.140;2022-09-21T04:44:15;4.80;;;4.35;;
40609;SDS011;26316;55.976;37.140;2022-09-21T04:46:43;6.50;;;5.07;;
40609;SDS011;26316;55.976;37.140;2022-09-21T04:49:09;5.50;;;4.20;;
40609;SDS011;26316;55.976;37.140;2022-09-21T04:51:35;5.43;;;4.75;;
40609;SDS011;26316;55.976;37.140;2022-09-21T04:54:01;4.47;;;3.95;;
40609;SDS011;26316;55.976;37.140;2022-09-21T04:56:27;5.00;;;4.50;;
40609;SDS011;26316;55.976;37.140;2022-09-21T04:58:53;5.22;;;3.90;;
40609;SDS011;26316;55.976;37.140;2022-09-21T05:01:19;4.50;;;4.20;;
40609;SDS011;26316;55.976;37.140;2022-09-21T05:03:44;4.30;;;3.90;;
40609;SDS011;26316;55.976;37.140;2022-09-21T05:06:10;4.72;;;3.60;;
40609;SDS011;26316;55.976;37.140;2022-09-21T05:08:37;6.68;;;3.95;;
40609;SDS011;26316;55.976;37.140;2022-09-21T05:11:22;3.92;;;3.55;;
40609;SDS011;26316;55.976;37.140;2022-09-21T05:13:48;8.63;;;4.07;;
40609;SDS011;26316;55.976;37.140;2022-09-21T05:16:15;6.60;;;3.72;;
40609;SDS011;26316;55.976;37.140;2022-09-21T05:18:42;9.07;;;3.60;;
40609;SDS011;26316;55.976;37.140;2022-09-21T05:21:08;3.90;;;3.38;;
40609;SDS011;26316;55.976;37.140;2022-09-21T05:23:36;3.03;;;2.83;;
40609;SDS011;26316;55.976;37.140;2022-09-21T05:26:01;3.00;;;2.78;;
40609;SDS011;26316;55.976;37.140;2022-09-21T05:28:27;7.05;;;2.92;;
40609;SDS011;26316;55.976;37.140;2022-09-21T05:33:22;2.90;;;2.70;;
40609;SDS011;26316;55.976;37.140;2022-09-21T05:38:32;2.95;;;2.63;;
40609;SDS011;26316;55.976;37.140;2022-09-21T05:40:58;4.90;;;2.72;;
40609;SDS011;26316;55.976;37.140;2022-09-21T05:43:24;2.58;;;2.30;;
40609;SDS011;26316;55.976;37.140;2022-09-21T05:45:51;2.55;;;2.35;;
40609;SDS011;26316;55.976;37.140;2022-09-21T05:48:24;2.58;;;2.38;;
40609;SDS011;26316;55.976;37.140;2022-09-21T05:50:59;2.63;;;2.42;;
40609;SDS011;26316;55.976;37.140;2022-09-21T05:57:00;2.35;;;2.10;;
40609;SDS011;26316;55.976;37.140;2022-09-21T06:04:30;2.13;;;2.03;;
40609;SDS011;26316;55.976;37.140;2022-09-21T06:06:56;2.88;;;2.13;;
40609;SDS011;26316;55.976;37.140;2022-09-21T06:09:22;1.60;;;1.50;;
40609;SDS011;26316;55.976;37.140;2022-09-21T06:11:50;3.13;;;1.92;;
40609;SDS011;26316;55.976;37.140;2022-09-21T06:14:15;1.85;;;1.73;;
40609;SDS011;26316;55.976;37.140;2022-09-21T06:16:49;2.25;;;1.95;;
40609;SDS011;26316;55.976;37.140;2022-09-21T06:19:15;2.38;;;2.05;;
40609;SDS011;26316;55.976;37.140;2022-09-21T06:21:41;2.72;;;1.55;;
40609;SDS011;26316;55.976;37.140;2022-09-21T06:24:06;4.13;;;1.70;;
40609;SDS011;26316;55.976;37.140;2022-09-21T06:26:33;5.00;;;2.38;;
40609;SDS011;26316;55.976;37.140;2022-09-21T06:28:59;5.20;;;2.10;;
40609;SDS011;26316;55.976;37.140;2022-09-21T06:31:27;4.45;;;2.03;;
40609;SDS011;26316;55.976;37.140;2022-09-21T06:33:53;4.53;;;1.77;;
40609;SDS011;26316;55.976;37.140;2022-09-21T06:36:19;6.78;;;2.40;;
40609;SDS011;26316;55.976;37.140;2022-09-21T06:38:44;2.00;;;1.45;;
40609;SDS011;26316;55.976;37.140;2022-09-21T06:41:10;1.92;;;1.75;;
40609;SDS011;26316;55.976;37.140;2022-09-21T06:43:37;3.70;;;1.73;;
40609;SDS011;26316;55.976;37.140;2022-09-21T06:46:09;2.15;;;1.95;;
40609;SDS011;26316;55.976;37.140;2022-09-21T06:48:34;8.77;;;2.40;;
40609;SDS011;26316;55.976;37.140;2022-09-21T06:51:01;2.58;;;1.70;;
40609;SDS011;26316;55.976;37.140;2022-09-21T06:53:29;2.83;;;1.73;;
40609;SDS011;26316;55.976;37.140;2022-09-21T06:55:59;2.53;;;1.67;;
40609;SDS011;26316;55.976;37.140;2022-09-21T06:58:31;5.70;;;1.63;;
40609;SDS011;26316;55.976;37.140;2022-09-21T07:01:04;2.15;;;1.70;;
40609;SDS011;26316;55.976;37.140;2022-09-21T07:03:33;1.70;;;1.60;;
40609;SDS011;26316;55.976;37.140;2022-09-21T07:05:58;1.83;;;1.27;;
40609;SDS011;26316;55.976;37.140;2022-09-21T07:08:24;2.92;;;1.95;;
40609;SDS011;26316;55.976;37.140;2022-09-21T07:10:51;1.40;;;1.30;;
40609;SDS011;26316;55.976;37.140;2022-09-21T07:13:17;1.60;;;1.50;;
40609;SDS011;26316;55.976;37.140;2022-09-21T07:15:43;1.70;;;1.58;;
40609;SDS011;26316;55.976;37.140;2022-09-21T07:18:10;4.82;;;1.88;;
40609;SDS011;26316;55.976;37.140;2022-09-21T07:23:09;1.70;;;1.30;;
40609;SDS011;26316;55.976;37.140;2022-09-21T07:25:43;1.92;;;1.80;;
40609;SDS011;26316;55.976;37.140;2022-09-21T07:28:10;1.83;;;1.35;;
40609;SDS011;26316;55.976;37.140;2022-09-21T07:30:37;1.77;;;1.60;;
40609;SDS011;26316;55.976;37.140;2022-09-21T07:33:03;3.00;;;1.58;;
40609;SDS011;26316;55.976;37.140;2022-09-21T07:35:29;4.25;;;1.75;;
40609;SDS011;26316;55.976;37.140;2022-09-21T07:37:58;3.60;;;2.05;;
40609;SDS011;26316;55.976;37.140;2022-09-21T07:42:50;3.28;;;1.70;;
40609;SDS011;26316;55.976;37.140;2022-09-21T07:45:16;5.93;;;1.60;;
40609;SDS011;26316;55.976;37.140;2022-09-21T07:47:42;1.70;;;1.30;;
40609;SDS011;26316;55.976;37.140;2022-09-21T07:50:08;1.83;;;1.40;;
40609;SDS011;26316;55.976;37.140;2022-09-21T07:52:34;2.20;;;1.35;;
40609;SDS011;26316;55.976;37.140;2022-09-21T07:55:00;2.85;;;1.30;;
40609;SDS011;26316;55.976;37.140;2022-09-21T07:57:26;4.93;;;1.83;;
40609;SDS011;26316;55.976;37.140;2022-09-21T08:00:10;3.08;;;1.42;;
40609;SDS011;26316;55.976;37.140;2022-09-21T08:02:39;6.33;;;1.50;;
40609;SDS011;26316;55.976;37.140;2022-09-21T08:05:04;2.15;;;1.30;;
40609;SDS011;26316;55.976;37.140;2022-09-21T08:07:30;1.85;;;1.60;;
40609;SDS011;26316;55.976;37.140;2022-09-21T08:09:56;4.97;;;1.90;;
40609;SDS011;26316;55.976;37.140;2022-09-21T08:12:22;2.00;;;1.50;;
40609;SDS011;26316;55.976;37.140;2022-09-21T08:14:48;1.50;;;1.10;;
40609;SDS011;26316;55.976;37.140;2022-09-21T08:17:14;1.90;;;1.45;;
40609;SDS011;26316;55.976;37.140;2022-09-21T08:19:40;1.70;;;1.48;;
40609;SDS011;26316;55.976;37.140;2022-09-21T08:22:06;3.03;;;2.10;;
40609;SDS011;26316;55.976;37.140;2022-09-21T08:24:32;2.20;;;1.80;;
40609;SDS011;26316;55.976;37.140;2022-09-21T08:26:58;4.05;;;1.83;;
40609;SDS011;26316;55.976;37.140;2022-09-21T08:29:24;3.38;;;1.63;;
40609;SDS011;26316;55.976;37.140;2022-09-21T08:31:50;1.67;;;1.40;;
40609;SDS011;26316;55.976;37.140;2022-09-21T08:34:17;3.67;;;1.85;;
40609;SDS011;26316;55.976;37.140;2022-09-21T08:36:44;5.07;;;1.67;;
40609;SDS011;26316;55.976;37.140;2022-09-21T08:39:10;2.58;;;1.55;;
40609;SDS011;26316;55.976;37.140;2022-09-21T08:46:38;2.55;;;1.70;;
40609;SDS011;26316;55.976;37.140;2022-09-21T08:49:27;1.55;;;1.23;;
40609;SDS011;26316;55.976;37.140;2022-09-21T08:51:53;1.75;;;1.63;;
40609;SDS011;26316;55.976;37.140;2022-09-21T08:54:26;3.60;;;1.48;;
40609;SDS011;26316;55.976;37.140;2022-09-21T08:56:55;2.92;;;1.70;;
40609;SDS011;26316;55.976;37.140;2022-09-21T08:59:20;4.13;;;1.92;;
40609;SDS011;26316;55.976;37.140;2022-09-21T09:04:20;4.05;;;1.65;;
40609;SDS011;26316;55.976;37.140;2022-09-21T09:10:12;2.25;;;1.60;;
40609;SDS011;26316;55.976;37.140;2022-09-21T09:21:18;3.33;;;1.60;;
40609;SDS011;26316;55.976;37.140;2022-09-21T09:23:46;1.50;;;1.40;;
40609;SDS011;26316;55.976;37.140;2022-09-21T09:26:23;2.00;;;1.20;;
40609;SDS011;26316;55.976;37.140;2022-09-21T09:29:01;1.40;;;1.30;;
40609;SDS011;26316;55.976;37.140;2022-09-21T09:31:31;2.45;;;1.42;;
40609;SDS011;26316;55.976;37.140;2022-09-21T09:36:36;2.38;;;1.20;;
40609;SDS011;26316;55.976;37.140;2022-09-21T09:39:08;2.17;;;1.67;;
40609;SDS011;26316;55.976;37.140;2022-09-21T09:47:37;4.82;;;1.20;;
40609;SDS011;26316;55.976;37.140;2022-09-21T09:50:29;2.13;;;1.33;;
40609;SDS011;26316;55.976;37.140;2022-09-21T09:55:36;3.95;;;1.90;;
40609;SDS011;26316;55.976;37.140;2022-09-21T09:58:03;0.93;;;0.93;;
40609;SDS011;26316;55.976;37.140;2022-09-21T10:00:29;3.50;;;1.30;;
40609;SDS011;26316;55.976;37.140;2022-09-21T10:02:56;4.35;;;2.20;;
40609;SDS011;26316;55.976;37.140;2022-09-21T10:05:32;1.58;;;1.48;;
40609;SDS011;26316;55.976;37.140;2022-09-21T10:07:59;2.63;;;1.98;;
40609;SDS011;26316;55.976;37.140;2022-09-21T10:15:50;1.95;;;1.70;;
40609;SDS011;26316;55.976;37.140;2022-09-21T10:18:25;3.38;;;1.20;;
40609;SDS011;26316;55.976;37.140;2022-09-21T10:21:17;1.67;;;1.33;;
40609;SDS011;26316;55.976;37.140;2022-09-21T10:23:46;2.35;;;1.08;;
40609;SDS011;26316;55.976;37.140;2022-09-21T10:28:53;2.78;;;1.30;;
40609;SDS011;26316;55.976;37.140;2022-09-21T10:31:22;1.52;;;1.30;;
40609;SDS011;26316;55.976;37.140;2022-09-21T10:33:51;1.25;;;1.15;;
40609;SDS011;26316;55.976;37.140;2022-09-21T10:36:25;1.67;;;1.20;;
40609;SDS011;26316;55.976;37.140;2022-09-21T10:39:09;2.47;;;1.45;;
40609;SDS011;26316;55.976;37.140;2022-09-21T10:41:36;1.50;;;1.40;;
40609;SDS011;26316;55.976;37.140;2022-09-21T10:44:02;3.20;;;1.35;;
40609;SDS011;26316;55.976;37.140;2022-09-21T10:46:32;1.38;;;1.20;;
40609;SDS011;26316;55.976;37.140;2022-09-21T10:48:59;1.55;;;1.42;;
40609;SDS011;26316;55.976;37.140;2022-09-21T10:51:27;3.40;;;1.30;;
40609;SDS011;26316;55.976;37.140;2022-09-21T10:53:53;1.30;;;1.20;;
40609;SDS011;26316;55.976;37.140;2022-09-21T10:56:19;2.25;;;1.20;;
40609;SDS011;26316;55.976;37.140;2022-09-21T11:01:35;1.25;;;1.15;;
40609;SDS011;26316;55.976;37.140;2022-09-21T11:06:36;2.28;;;1.20;;
40609;SDS011;26316;55.976;37.140;2022-09-21T11:09:07;1.48;;;1.38;;
40609;SDS011;26316;55.976;37.140;2022-09-21T11:14:49;1.95;;;1.30;;
40609;SDS011;26316;55.976;37.140;2022-09-21T11:17:25;3.85;;;1.30;;
40609;SDS011;26316;55.976;37.140;2022-09-21T11:19:54;3.80;;;1.58;;
40609;SDS011;26316;55.976;37.140;2022-09-21T11:22:34;2.25;;;1.50;;
40609;SDS011;26316;55.976;37.140;2022-09-21T11:27:44;2.97;;;1.27;;
40609;SDS011;26316;55.976;37.140;2022-09-21T11:30:17;5.05;;;1.45;;
40609;SDS011;26316;55.976;37.140;2022-09-21T11:38:37;1.52;;;1.40;;
40609;SDS011;26316;55.976;37.140;2022-09-21T11:41:17;1.48;;;1.23;;
40609;SDS011;26316;55.976;37.140;2022-09-21T11:43:53;2.78;;;1.42;;
40609;SDS011;26316;55.976;37.140;2022-09-21T11:46:48;1.90;;;1.58;;
40609;SDS011;26316;55.976;37.140;2022-09-21T11:57:34;1.83;;;1.20;;
40609;SDS011;26316;55.976;37.140;2022-09-21T12:03:05;1.30;;;1.20;;
40609;SDS011;26316;55.976;37.140;2022-09-21T12:16:53;3.97;;;1.40;;
40609;SDS011;26316;55.976;37.140;2022-09-21T12:22:18;1.83;;;1.73;;
40609;SDS011;26316;55.976;37.140;2022-09-21T12:25:44;1.98;;;1.48;;
40609;SDS011;26316;55.976;37.140;2022-09-21T12:30:47;3.13;;;2.60;;
40609;SDS011;26316;55.976;37.140;2022-09-21T12:33:18;4.63;;;1.73;;
40609;SDS011;26316;55.976;37.140;2022-09-21T12:35:50;2.40;;;2.20;;
40609;SDS011;26316;55.976;37.140;2022-09-21T12:41:13;2.58;;;2.38;;
40609;SDS011;26316;55.976;37.140;2022-09-21T12:47:06;4.60;;;1.67;;
40609;SDS011;26316;55.976;37.140;2022-09-21T12:52:03;7.07;;;2.08;;
40609;SDS011;26316;55.976;37.140;2022-09-21T13:00:19;2.55;;;2.35;;
40609;SDS011;26316;55.976;37.140;2022-09-21T13:08:40;5.20;;;3.28;;
40609;SDS011;26316;55.976;37.140;2022-09-21T13:11:08;6.93;;;3.30;;
40609;SDS011;26316;55.976;37.140;2022-09-21T13:13:36;3.03;;;2.65;;
40609;SDS011;26316;55.976;37.140;2022-09-21T13:16:06;4.53;;;3.00;;
40609;SDS011;26316;55.976;37.140;2022-09-21T13:18:52;4.60;;;2.97;;
40609;SDS011;26316;55.976;37.140;2022-09-21T13:21:21;4.30;;;3.20;;
40609;SDS011;26316;55.976;37.140;2022-09-21T13:23:54;4.53;;;3.03;;
40609;SDS011;26316;55.976;37.140;2022-09-21T13:34:23;6.05;;;3.20;;
40609;SDS011;26316;55.976;37.140;2022-09-21T13:40:29;3.35;;;2.60;;
40609;SDS011;26316;55.976;37.140;2022-09-21T13:42:42;5.80;;;2.83;;
40609;SDS011;26316;55.976;37.140;2022-09-21T13:47:41;4.53;;;2.38;;
40609;SDS011;26316;55.976;37.140;2022-09-21T13:52:38;2.80;;;2.42;;
40609;SDS011;26316;55.976;37.140;2022-09-21T13:55:19;5.05;;;2.58;;
40609;SDS011;26316;55.976;37.140;2022-09-21T14:07:54;3.28;;;2.22;;
40609;SDS011;26316;55.976;37.140;2022-09-21T14:10:22;2.97;;;1.85;;
40609;SDS011;26316;55.976;37.140;2022-09-21T14:12:47;2.10;;;1.90;;
40609;SDS011;26316;55.976;37.140;2022-09-21T14:18:07;3.05;;;1.90;;
40609;SDS011;26316;55.976;37.140;2022-09-21T14:20:33;3.65;;;1.98;;
40609;SDS011;26316;55.976;37.140;2022-09-21T14:23:25;2.00;;;1.63;;
40609;SDS011;26316;55.976;37.140;2022-09-21T14:25:53;4.15;;;2.10;;
40609;SDS011;26316;55.976;37.140;2022-09-21T14:31:00;2.30;;;1.70;;
40609;SDS011;26316;55.976;37.140;2022-09-21T14:33:33;3.73;;;2.00;;
40609;SDS011;26316;55.976;37.140;2022-09-21T14:36:07;3.50;;;2.05;;
40609;SDS011;26316;55.976;37.140;2022-09-21T14:38:39;2.08;;;1.73;;
40609;SDS011;26316;55.976;37.140;2022-09-21T14:41:07;3.05;;;1.70;;
40609;SDS011;26316;55.976;37.140;2022-09-21T14:43:34;2.50;;;1.90;;
40609;SDS011;26316;55.976;37.140;2022-09-21T14:48:46;3.17;;;2.22;;
40609;SDS011;26316;55.976;37.140;2022-09-21T14:54:08;2.17;;;1.98;;
40609;SDS011;26316;55.976;37.140;2022-09-21T15:02:31;2.08;;;1.98;;
40609;SDS011;26316;55.976;37.140;2022-09-21T15:13:29;2.38;;;1.90;;
40609;SDS011;26316;55.976;37.140;2022-09-21T15:16:07;2.33;;;1.90;;
40609;SDS011;26316;55.976;37.140;2022-09-21T15:18:50;1.55;;;1.45;;
40609;SDS011;26316;55.976;37.140;2022-09-21T15:21:29;3.50;;;1.70;;
40609;SDS011;26316;55.976;37.140;2022-09-21T15:23:56;1.98;;;1.50;;
40609;SDS011;26316;55.976;37.140;2022-09-21T15:26:24;3.22;;;1.77;;
40609;SDS011;26316;55.976;37.140;2022-09-21T15:28:54;4.70;;;1.85;;
40609;SDS011;26316;55.976;37.140;2022-09-21T15:31:22;11.70;;;2.00;;
40609;SDS011;26316;55.976;37.140;2022-09-21T15:33:48;3.97;;;1.65;;
40609;SDS011;26316;55.976;37.140;2022-09-21T15:36:22;5.32;;;1.85;;
40609;SDS011;26316;55.976;37.140;2022-09-21T15:38:49;7.65;;;1.90;;
40609;SDS011;26316;55.976;37.140;2022-09-21T15:41:35;4.85;;;1.83;;
40609;SDS011;26316;55.976;37.140;2022-09-21T15:44:15;3.47;;;1.45;;
40609;SDS011;26316;55.976;37.140;2022-09-21T15:46:42;6.88;;;1.77;;
40609;SDS011;26316;55.976;37.140;2022-09-21T15:49:14;8.38;;;2.00;;
40609;SDS011;26316;55.976;37.140;2022-09-21T15:51:45;2.15;;;1.60;;
40609;SDS011;26316;55.976;37.140;2022-09-21T15:59:59;3.63;;;1.70;;
40609;SDS011;26316;55.976;37.140;2022-09-21T16:02:26;2.75;;;1.65;;
40609;SDS011;26316;55.976;37.140;2022-09-21T16:04:54;5.88;;;2.20;;
40609;SDS011;26316;55.976;37.140;2022-09-21T16:09:58;6.05;;;1.70;;
40609;SDS011;26316;55.976;37.140;2022-09-21T16:15:35;4.32;;;1.95;;
40609;SDS011;26316;55.976;37.140;2022-09-21T16:18:00;2.88;;;2.35;;
40609;SDS011;26316;55.976;37.140;2022-09-21T16:20:46;3.97;;;2.70;;
40609;SDS011;26316;55.976;37.140;2022-09-21T16:23:19;3.08;;;2.60;;
40609;SDS011;26316;55.976;37.140;2022-09-21T16:25:52;5.88;;;3.33;;
40609;SDS011;26316;55.976;37.140;2022-09-21T16:28:28;4.63;;;3.05;;
40609;SDS011;26316;55.976;37.140;2022-09-21T16:31:25;5.82;;;3.63;;
40609;SDS011;26316;55.976;37.140;2022-09-21T16:33:56;7.00;;;2.80;;
40609;SDS011;26316;55.976;37.140;2022-09-21T16:39:01;5.47;;;3.15;;
40609;SDS011;26316;55.976;37.140;2022-09-21T16:44:04;6.65;;;3.70;;
40609;SDS011;26316;55.976;37.140;2022-09-21T16:46:30;7.47;;;3.58;;
40609;SDS011;26316;55.976;37.140;2022-09-21T16:48:56;3.60;;;3.28;;
40609;SDS011;26316;55.976;37.140;2022-09-21T16:51:24;8.00;;;3.97;;
40609;SDS011;26316;55.976;37.140;2022-09-21T16:53:51;6.95;;;4.50;;
40609;SDS011;26316;55.976;37.140;2022-09-21T16:56:17;5.57;;;4.03;;
40609;SDS011;26316;55.976;37.140;2022-09-21T16:58:43;6.43;;;3.95;;
40609;SDS011;26316;55.976;37.140;2022-09-21T17:01:13;6.13;;;3.90;;
40609;SDS011;26316;55.976;37.140;2022-09-21T17:03:46;4.60;;;4.15;;
40609;SDS011;26316;55.976;37.140;2022-09-21T17:06:14;4.00;;;3.70;;
40609;SDS011;26316;55.976;37.140;2022-09-21T17:08:43;5.03;;;3.22;;
40609;SDS011;26316;55.976;37.140;2022-09-21T17:11:13;5.38;;;3.85;;
40609;SDS011;26316;55.976;37.140;2022-09-21T17:13:50;4.45;;;3.53;;
40609;SDS011;26316;55.976;37.140;2022-09-21T17:16:17;4.28;;;3.47;;
40609;SDS011;26316;55.976;37.140;2022-09-21T17:18:44;7.60;;;4.00;;
40609;SDS011;26316;55.976;37.140;2022-09-21T17:21:13;4.65;;;3.13;;
40609;SDS011;26316;55.976;37.140;2022-09-21T17:23:40;5.93;;;3.33;;
40609;SDS011;26316;55.976;37.140;2022-09-21T17:26:16;4.32;;;3.47;;
40609;SDS011;26316;55.976;37.140;2022-09-21T17:28:45;3.73;;;3.30;;
40609;SDS011;26316;55.976;37.140;2022-09-21T17:31:12;4.93;;;3.28;;
40609;SDS011;26316;55.976;37.140;2022-09-21T17:33:40;3.30;;;3.00;;
40609;SDS011;26316;55.976;37.140;2022-09-21T17:36:12;5.63;;;3.10;;
40609;SDS011;26316;55.976;37.140;2022-09-21T17:38:38;3.53;;;2.67;;
40609;SDS011;26316;55.976;37.140;2022-09-21T17:41:05;4.45;;;2.60;;
40609;SDS011;26316;55.976;37.140;2022-09-21T17:44:04;3.15;;;2.85;;
40609;SDS011;26316;55.976;37.140;2022-09-21T17:49:18;3.97;;;2.97;;
40609;SDS011;26316;55.976;37.140;2022-09-21T17:51:47;3.55;;;2.65;;
40609;SDS011;26316;55.976;37.140;2022-09-21T17:54:40;2.78;;;2.22;;
40609;SDS011;26316;55.976;37.140;2022-09-21T17:57:10;5.72;;;2.67;;
40609;SDS011;26316;55.976;37.140;2022-09-21T18:00:08;2.33;;;2.13;;
40609;SDS011;26316;55.976;37.140;2022-09-21T18:02:36;3.08;;;2.75;;
40609;SDS011;26316;55.976;37.140;2022-09-21T18:05:02;2.78;;;2.58;;
40609;SDS011;26316;55.976;37.140;2022-09-21T18:07:34;4.00;;;2.72;;
40609;SDS011;26316;55.976;37.140;2022-09-21T18:10:00;4.72;;;2.42;;
40609;SDS011;26316;55.976;37.140;2022-09-21T18:12:35;2.42;;;2.28;;
40609;SDS011;26316;55.976;37.140;2022-09-21T18:25:36;2.38;;;2.17;;
40609;SDS011;26316;55.976;37.140;2022-09-21T18:28:16;2.00;;;1.90;;
40609;SDS011;26316;55.976;37.140;2022-09-21T18:30:57;2.75;;;2.50;;
40609;SDS011;26316;55.976;37.140;2022-09-21T18:41:47;3.33;;;2.80;;
40609;SDS011;26316;55.976;37.140;2022-09-21T18:44:23;2.47;;;2.25;;
40609;SDS011;26316;55.976;37.140;2022-09-21T18:47:04;4.82;;;2.63;;
40609;SDS011;26316;55.976;37.140;2022-09-21T18:52:36;4.18;;;2.58;;